createdAt,value
2022-10-19T00:01:32.837Z,17.29
2022-10-19T00:03:38.511Z,17.28
2022-10-19T00:05:43.183Z,17.26
2022-10-19T00:07:47.836Z,17.25
2022-10-19T00:09:52.751Z,17.22
2022-10-19T00:11:57.399Z,17.21
2022-10-19T00:14:03.385Z,17.18
2022-10-19T00:16:12.074Z,17.15
2022-10-19T00:18:16.786Z,17.14
2022-10-19T00:20:21.544Z,17.12
2022-10-19T00:22:26.327Z,17.11
2022-10-19T00:24:31.013Z,17.07
2022-10-19T00:26:35.885Z,17.06
2022-10-19T00:28:40.637Z,17.04
2022-10-19T00:30:45.483Z,17.02
2022-10-19T00:32:50.170Z,17.00
2022-10-19T00:34:54.826Z,16.95
2022-10-19T00:36:59.483Z,16.91
2022-10-19T00:39:06.348Z,16.89
2022-10-19T00:41:10.997Z,16.87
2022-10-19T00:43:22.506Z,16.84
2022-10-19T00:45:27.247Z,16.82
2022-10-19T00:47:32.670Z,16.80
2022-10-19T00:49:40.842Z,16.78
2022-10-19T00:51:48.284Z,16.74
2022-10-19T00:53:53.312Z,16.74
2022-10-19T00:56:02.683Z,16.72
2022-10-19T00:58:07.619Z,16.71
2022-10-19T01:00:13.257Z,16.70
2022-10-19T01:02:17.997Z,16.68
2022-10-19T01:04:24.691Z,16.66
2022-10-19T01:06:29.762Z,16.65
2022-10-19T01:08:34.413Z,16.66
2022-10-19T01:10:57.954Z,16.67
2022-10-19T01:13:20.243Z,16.65
2022-10-19T01:15:32.754Z,16.64
2022-10-19T01:17:49.668Z,16.62
2022-10-19T01:20:24.142Z,16.61
2022-10-19T01:22:39.265Z,16.63
2022-10-19T01:24:56.606Z,16.62
2022-10-19T01:27:35.649Z,16.59
2022-10-19T01:30:01.868Z,16.57
2022-10-19T01:32:11.259Z,16.55
2022-10-19T01:34:24.466Z,16.54
2022-10-19T01:36:39.431Z,16.52
2022-10-19T01:38:51.131Z,16.50
2022-10-19T01:41:04.241Z,16.49
2022-10-19T01:43:17.694Z,16.47
2022-10-19T01:45:27.380Z,16.47
2022-10-19T01:47:38.378Z,16.45
2022-10-19T01:49:47.248Z,16.43
2022-10-19T01:54:09.377Z,16.42
2022-10-19T01:56:16.896Z,16.41
2022-10-19T01:58:27.146Z,16.40
2022-10-19T02:00:35.668Z,16.38
2022-10-19T02:02:45.552Z,16.36
2022-10-19T02:04:51.855Z,16.34
2022-10-19T02:06:56.956Z,16.32
2022-10-19T02:09:01.699Z,16.29
2022-10-19T02:11:06.535Z,16.29
2022-10-19T02:13:13.643Z,16.28
2022-10-19T02:15:22.605Z,16.29
2022-10-19T02:17:31.248Z,16.28
2022-10-19T02:19:35.983Z,16.25
2022-10-19T02:21:41.180Z,16.24
2022-10-19T02:23:47.515Z,16.23
2022-10-19T02:25:54.702Z,16.22
2022-10-19T02:28:02.646Z,16.21
2022-10-19T02:30:09.716Z,16.19
2022-10-19T02:32:14.517Z,16.16
2022-10-19T02:34:19.192Z,16.13
2022-10-19T02:36:23.913Z,16.10
2022-10-19T02:38:29.033Z,16.08
2022-10-19T02:40:39.953Z,16.05
2022-10-19T02:42:48.586Z,16.00
2022-10-19T02:44:59.838Z,15.96
2022-10-19T02:47:10.974Z,15.92
2022-10-19T02:49:16.319Z,15.87
2022-10-19T02:51:32.857Z,15.83
2022-10-19T02:53:37.433Z,15.79
2022-10-19T02:55:42.817Z,15.74
2022-10-19T02:57:47.494Z,15.71
2022-10-19T02:59:52.523Z,15.66
2022-10-19T03:01:57.128Z,15.62
2022-10-19T03:04:01.753Z,15.60
2022-10-19T03:06:06.372Z,15.57
2022-10-19T03:08:11.010Z,15.55
2022-10-19T03:10:15.820Z,15.54
2022-10-19T03:12:20.709Z,15.53
2022-10-19T03:14:25.471Z,15.52
2022-10-19T03:16:30.123Z,15.50
2022-10-19T03:18:34.826Z,15.48
2022-10-19T03:20:39.494Z,15.44
2022-10-19T03:22:44.186Z,15.41
2022-10-19T03:24:48.930Z,15.38
2022-10-19T03:26:53.662Z,15.34
2022-10-19T03:28:58.344Z,15.31
2022-10-19T03:31:03.028Z,15.28
2022-10-19T03:33:07.766Z,15.24
2022-10-19T03:35:12.505Z,15.22
2022-10-19T03:37:17.184Z,15.19
2022-10-19T03:39:21.767Z,15.15
2022-10-19T03:41:28.462Z,15.15
2022-10-19T03:43:33.209Z,15.11
2022-10-19T03:45:37.904Z,15.09
2022-10-19T03:47:42.503Z,15.07
2022-10-19T03:49:47.165Z,15.06
2022-10-19T03:51:51.903Z,15.04
2022-10-19T03:53:58.427Z,15.05
2022-10-19T03:56:07.632Z,15.04
2022-10-19T03:58:12.298Z,15.01
2022-10-19T04:00:17.542Z,15.00
2022-10-19T04:02:22.174Z,14.99
2022-10-19T04:04:26.946Z,14.96
2022-10-19T04:06:35.776Z,14.97
2022-10-19T04:08:40.795Z,14.97
2022-10-19T04:10:45.475Z,14.96
2022-10-19T04:12:53.734Z,14.96
2022-10-19T04:14:58.684Z,14.94
2022-10-19T04:17:03.805Z,14.94
2022-10-19T04:19:08.751Z,14.92
2022-10-19T04:21:23.375Z,14.92
2022-10-19T04:23:30.948Z,14.89
2022-10-19T04:25:35.626Z,14.88
2022-10-19T04:27:40.197Z,14.86
2022-10-19T04:29:44.881Z,14.86
2022-10-19T04:31:50.802Z,14.86
2022-10-19T04:33:55.602Z,14.85
2022-10-19T04:36:02.029Z,14.85
2022-10-19T04:38:06.667Z,14.83
2022-10-19T04:40:15.035Z,14.84
2022-10-19T04:42:19.883Z,14.84
2022-10-19T04:46:34.499Z,14.83
2022-10-19T04:48:40.217Z,14.81
2022-10-19T04:50:44.850Z,14.79
2022-10-19T04:52:57.672Z,14.76
2022-10-19T04:55:02.298Z,14.72
2022-10-19T04:57:07.004Z,14.69
2022-10-19T04:59:12.024Z,14.66
2022-10-19T05:01:21.140Z,14.62
2022-10-19T05:03:25.938Z,14.59
2022-10-19T05:05:31.236Z,14.54
2022-10-19T05:07:36.065Z,14.53
2022-10-19T05:09:40.944Z,14.50
2022-10-19T05:11:45.569Z,14.47
2022-10-19T05:13:51.007Z,14.45
2022-10-19T05:16:00.711Z,14.42
2022-10-19T05:18:05.544Z,14.39
2022-10-19T05:20:11.576Z,14.37
2022-10-19T05:22:16.222Z,14.35
2022-10-19T05:24:20.770Z,14.35
2022-10-19T05:26:26.695Z,14.33
2022-10-19T05:28:32.239Z,14.32
2022-10-19T05:30:36.842Z,14.34
2022-10-19T05:32:41.531Z,14.34
2022-10-19T05:34:46.298Z,14.36
2022-10-19T05:36:50.888Z,14.39
2022-10-19T05:38:57.764Z,14.42
2022-10-19T05:41:02.440Z,14.47
2022-10-19T05:43:06.977Z,14.50
2022-10-19T05:45:12.307Z,14.53
2022-10-19T05:47:16.996Z,14.55
2022-10-19T05:49:23.309Z,14.56
2022-10-19T05:51:28.531Z,14.57
2022-10-19T05:53:34.459Z,14.57
2022-10-19T05:55:39.123Z,14.59
2022-10-19T05:57:43.814Z,14.60
2022-10-19T05:59:48.473Z,14.61
2022-10-19T06:01:53.130Z,14.63
2022-10-19T06:03:59.264Z,14.64
2022-10-19T06:06:06.350Z,14.64
2022-10-19T06:08:10.988Z,14.62
2022-10-19T06:10:18.632Z,14.62
2022-10-19T06:12:25.067Z,14.65
2022-10-19T06:14:30.055Z,14.68
2022-10-19T06:16:35.247Z,14.70
2022-10-19T06:18:40.269Z,14.70
2022-10-19T06:20:45.483Z,14.71
2022-10-19T06:22:50.017Z,14.72
2022-10-19T06:24:54.611Z,14.75
2022-10-19T06:26:59.232Z,14.78
2022-10-19T06:29:05.188Z,14.81
2022-10-19T06:31:10.628Z,14.85
2022-10-19T06:33:15.350Z,14.90
2022-10-19T06:35:20.300Z,14.97
2022-10-19T06:37:24.949Z,15.04
2022-10-19T06:39:29.642Z,15.10
2022-10-19T06:41:34.628Z,15.13
2022-10-19T06:43:54.151Z,15.19
2022-10-19T06:45:58.984Z,15.26
2022-10-19T06:48:06.803Z,15.33
2022-10-19T06:50:12.734Z,15.39
2022-10-19T06:52:17.391Z,15.43
2022-10-19T06:54:22.050Z,15.44
2022-10-19T06:56:27.185Z,15.46
2022-10-19T06:58:34.406Z,15.49
2022-10-19T07:00:39.120Z,15.50
2022-10-19T07:02:43.899Z,15.51
2022-10-19T07:04:48.531Z,15.53
2022-10-19T07:06:53.229Z,15.54
2022-10-19T07:08:58.015Z,15.56
2022-10-19T07:11:06.121Z,15.59
2022-10-19T07:13:10.872Z,15.61
2022-10-19T07:15:15.845Z,15.62
2022-10-19T07:17:20.529Z,15.64
2022-10-19T07:19:27.363Z,15.67
2022-10-19T07:21:32.071Z,15.71
2022-10-19T07:23:38.796Z,15.75
2022-10-19T07:25:43.397Z,15.79
2022-10-19T07:27:48.043Z,15.83
2022-10-19T07:29:52.728Z,15.87
2022-10-19T07:31:57.379Z,15.92
2022-10-19T07:34:03.952Z,15.95
2022-10-19T07:36:10.536Z,15.99
2022-10-19T07:38:15.271Z,16.02
2022-10-19T07:40:19.970Z,16.06
2022-10-19T07:42:24.601Z,16.11
2022-10-19T07:44:29.487Z,16.17
2022-10-19T07:46:34.346Z,16.25
2022-10-19T07:48:38.999Z,16.36
2022-10-19T07:50:48.955Z,16.45
2022-10-19T07:52:54.603Z,16.52
2022-10-19T07:54:59.324Z,16.57
2022-10-19T07:57:04.062Z,16.62
2022-10-19T07:59:09.729Z,16.67
2022-10-19T08:01:16.888Z,16.69
2022-10-19T08:05:46.353Z,16.76
2022-10-19T08:07:51.010Z,16.84
2022-10-19T08:09:56.200Z,16.90
2022-10-19T08:12:00.965Z,16.97
2022-10-19T08:14:05.630Z,17.02
2022-10-19T08:16:23.287Z,17.09
2022-10-19T08:20:42.471Z,17.28
2022-10-19T08:22:47.299Z,17.37
2022-10-19T08:24:51.969Z,17.43
2022-10-19T08:26:57.062Z,17.50
2022-10-19T08:29:02.686Z,17.55
2022-10-19T08:31:14.040Z,17.59
2022-10-19T08:33:18.669Z,17.64
2022-10-19T08:35:23.338Z,17.67
2022-10-19T08:37:40.811Z,17.69
2022-10-19T08:39:49.730Z,17.74
2022-10-19T08:42:03.438Z,17.79
2022-10-19T08:44:26.426Z,17.81
2022-10-19T08:46:42.993Z,17.81
2022-10-19T08:48:47.735Z,17.84
2022-10-19T08:50:53.076Z,17.87
2022-10-19T08:53:04.433Z,17.88
2022-10-19T08:55:20.418Z,17.86
2022-10-19T08:57:37.468Z,17.84
2022-10-19T08:59:49.308Z,17.82
2022-10-19T09:01:57.264Z,17.79
2022-10-19T09:04:06.330Z,17.80
2022-10-19T09:06:20.703Z,17.77
2022-10-19T09:08:25.842Z,17.76
2022-10-19T09:10:35.640Z,17.75
2022-10-19T09:12:48.045Z,17.72
2022-10-19T09:14:59.175Z,17.71
2022-10-19T09:17:10.590Z,17.70
2022-10-19T09:19:21.715Z,17.68
2022-10-19T09:21:38.037Z,17.66
2022-10-19T09:23:57.988Z,17.64
2022-10-19T09:26:03.415Z,17.62
2022-10-19T09:28:33.874Z,17.63
2022-10-19T09:30:47.148Z,17.61
2022-10-19T09:32:58.772Z,17.61
2022-10-19T09:35:05.761Z,17.60
2022-10-19T09:37:14.332Z,17.60
2022-10-19T09:39:28.621Z,17.60
2022-10-19T09:41:34.855Z,17.58
2022-10-19T09:43:42.427Z,17.56
2022-10-19T09:45:51.449Z,17.53
2022-10-19T09:47:58.996Z,17.51
2022-10-19T09:50:20.040Z,17.49
2022-10-19T09:52:37.901Z,17.50
2022-10-19T09:54:42.594Z,17.54
2022-10-19T09:56:54.647Z,17.55
2022-10-19T09:58:59.922Z,17.59
2022-10-19T10:01:05.096Z,17.67
2022-10-19T10:03:22.340Z,17.78
2022-10-19T10:05:33.739Z,17.89
2022-10-19T10:07:39.999Z,18.02
2022-10-19T10:09:45.393Z,18.12
2022-10-19T10:11:51.468Z,18.18
2022-10-19T10:13:58.322Z,18.20
2022-10-19T10:16:07.429Z,18.18
2022-10-19T10:18:15.959Z,18.17
2022-10-19T10:20:31.552Z,18.15
2022-10-19T10:22:37.211Z,18.13
2022-10-19T10:24:54.230Z,18.10
2022-10-19T10:27:01.199Z,18.08
2022-10-19T10:29:19.383Z,18.10
2022-10-19T10:31:27.828Z,18.13
2022-10-19T10:33:45.366Z,18.15
2022-10-19T10:35:52.212Z,18.19
2022-10-19T10:38:07.707Z,18.22
2022-10-19T10:40:23.721Z,18.30
2022-10-19T10:42:34.917Z,18.37
2022-10-19T10:44:44.759Z,18.42
2022-10-19T10:46:55.649Z,18.49
2022-10-19T10:49:02.245Z,18.55
2022-10-19T10:51:18.919Z,18.61
2022-10-19T10:53:40.827Z,18.62
2022-10-19T10:55:57.001Z,18.63
2022-10-19T10:58:13.258Z,18.63
2022-10-19T11:00:20.495Z,18.64
2022-10-19T11:02:35.584Z,18.65
2022-10-19T11:04:48.685Z,18.68
2022-10-19T11:07:01.706Z,18.72
2022-10-19T11:09:13.243Z,18.77
2022-10-19T11:11:21.423Z,18.79
2022-10-19T11:13:31.608Z,18.78
2022-10-19T11:15:46.050Z,18.77
2022-10-19T11:17:59.787Z,18.79
2022-10-19T11:20:11.994Z,18.83
2022-10-19T11:22:27.544Z,18.80
2022-10-19T11:24:45.095Z,18.79
2022-10-19T11:27:06.062Z,18.80
2022-10-19T11:29:29.407Z,18.86
2022-10-19T11:31:44.674Z,18.96
2022-10-19T11:34:00.307Z,19.05
2022-10-19T11:36:11.608Z,19.11
2022-10-19T11:38:34.158Z,19.07
2022-10-19T11:40:59.660Z,19.09
2022-10-19T11:43:14.611Z,19.07
2022-10-19T11:45:28.361Z,19.03
2022-10-19T11:47:47.555Z,19.02
2022-10-19T11:50:02.872Z,19.04
2022-10-19T11:52:16.638Z,19.07
2022-10-19T11:54:42.574Z,19.14
2022-10-19T11:57:02.858Z,19.25
2022-10-19T11:59:23.008Z,19.35
2022-10-19T12:01:41.843Z,19.44
2022-10-19T12:04:10.999Z,19.51
2022-10-19T12:06:23.626Z,19.56
2022-10-19T12:08:43.592Z,19.54
2022-10-19T12:10:58.075Z,19.46
2022-10-19T12:13:08.933Z,19.37
2022-10-19T12:15:23.227Z,19.27
2022-10-19T12:17:31.563Z,19.16
2022-10-19T12:19:41.885Z,19.14
2022-10-19T12:21:48.618Z,19.16
2022-10-19T12:23:55.265Z,19.19
2022-10-19T12:26:03.550Z,19.23
2022-10-19T12:28:10.925Z,19.25
2022-10-19T12:30:18.846Z,19.29
2022-10-19T12:32:24.993Z,19.33
2022-10-19T12:34:37.033Z,19.36
2022-10-19T12:36:51.636Z,19.41
2022-10-19T12:39:04.470Z,19.43
2022-10-19T12:41:15.917Z,19.45
2022-10-19T12:43:27.003Z,19.52
2022-10-19T12:45:34.236Z,19.55
2022-10-19T12:47:39.129Z,19.54
2022-10-19T12:49:49.447Z,19.56
2022-10-19T12:51:58.485Z,19.59
2022-10-19T12:54:12.695Z,19.66
2022-10-19T12:56:27.085Z,19.67
2022-10-19T12:58:41.510Z,19.66
2022-10-19T13:00:59.759Z,19.60
2022-10-19T13:03:15.665Z,19.47
2022-10-19T13:05:25.393Z,19.33
2022-10-19T13:07:37.487Z,19.19
2022-10-19T13:09:45.717Z,19.10
2022-10-19T13:12:22.480Z,19.06
2022-10-19T13:14:48.018Z,18.99
2022-10-19T13:17:01.375Z,18.97
2022-10-19T13:19:20.013Z,18.96
2022-10-19T13:21:51.449Z,18.96
2022-10-19T13:24:35.273Z,18.93
2022-10-19T13:26:40.093Z,18.91
2022-10-19T13:28:55.700Z,18.91
2022-10-19T13:31:08.352Z,18.89
2022-10-19T13:33:44.949Z,18.88
2022-10-19T13:36:05.928Z,18.84
2022-10-19T13:38:25.761Z,18.86
2022-10-19T13:40:30.547Z,18.89
2022-10-19T13:42:35.743Z,18.90
2022-10-19T13:44:46.503Z,18.92
2022-10-19T13:47:24.273Z,18.90
2022-10-19T13:49:48.385Z,18.91
2022-10-19T13:52:16.375Z,18.89
2022-10-19T13:54:38.556Z,18.86
2022-10-19T13:57:06.429Z,18.83
2022-10-19T13:59:32.135Z,18.82
2022-10-19T14:01:51.021Z,18.74
2022-10-19T14:04:18.935Z,18.60
2022-10-19T14:06:30.915Z,18.54
2022-10-19T14:08:59.925Z,18.50
2022-10-19T14:11:12.103Z,18.45
2022-10-19T14:13:17.273Z,18.40
2022-10-19T14:15:26.056Z,18.31
2022-10-19T14:17:32.734Z,18.23
2022-10-19T14:19:45.737Z,18.19
2022-10-19T14:21:50.451Z,18.12
2022-10-19T14:23:55.285Z,18.05
2022-10-19T14:26:01.913Z,18.00
2022-10-19T14:28:08.273Z,17.98
2022-10-19T14:30:22.994Z,17.92
2022-10-19T14:32:29.457Z,17.84
2022-10-19T14:34:34.203Z,17.76
2022-10-19T14:36:45.011Z,17.66
2022-10-19T14:38:52.377Z,17.51
2022-10-19T14:40:57.104Z,17.32
2022-10-19T14:43:03.018Z,17.14
2022-10-19T14:45:14.481Z,16.98
2022-10-19T14:47:23.646Z,16.87
2022-10-19T14:49:28.367Z,16.75
2022-10-19T14:51:37.336Z,16.64
2022-10-19T14:53:46.831Z,16.53
2022-10-19T14:55:54.911Z,16.40
2022-10-19T14:58:00.224Z,16.29
2022-10-19T15:00:09.740Z,16.21
2022-10-19T15:02:23.989Z,16.16
2022-10-19T15:04:31.439Z,16.11
2022-10-19T15:06:37.696Z,16.09
2022-10-19T15:08:46.065Z,16.01
2022-10-19T15:10:51.520Z,15.97
2022-10-19T15:13:01.198Z,15.95
2022-10-19T15:15:14.164Z,15.93
2022-10-19T15:17:27.843Z,15.91
2022-10-19T15:19:40.029Z,15.88
2022-10-19T15:21:45.058Z,15.87
2022-10-19T15:23:51.693Z,15.88
2022-10-19T15:26:03.092Z,15.87
2022-10-19T15:28:36.117Z,15.85
2022-10-19T15:30:43.818Z,15.78
2022-10-19T15:32:51.079Z,15.68
2022-10-19T15:34:55.827Z,15.60
2022-10-19T15:37:01.646Z,15.52
2022-10-19T15:39:18.282Z,15.45
2022-10-19T15:41:32.039Z,15.35
2022-10-19T15:43:45.548Z,15.27
2022-10-19T15:46:00.975Z,15.20
2022-10-19T15:48:26.562Z,15.12
2022-10-19T15:50:40.978Z,15.04
2022-10-19T15:52:45.643Z,14.95
2022-10-19T15:54:51.678Z,14.87
2022-10-19T15:56:56.494Z,14.81
2022-10-19T15:59:03.555Z,14.76
2022-10-19T16:01:15.682Z,14.72
2022-10-19T16:03:21.079Z,14.67
2022-10-19T16:05:26.081Z,14.61
2022-10-19T16:07:33.815Z,14.55
2022-10-19T16:09:38.859Z,14.50
2022-10-19T16:11:44.118Z,14.46
2022-10-19T16:13:49.451Z,14.40
2022-10-19T16:16:10.597Z,14.36
2022-10-19T16:18:16.548Z,14.34
2022-10-19T16:20:26.191Z,14.29
2022-10-19T16:22:33.677Z,14.26
2022-10-19T16:24:39.386Z,14.23
2022-10-19T16:26:44.946Z,14.20
2022-10-19T16:28:50.145Z,14.16
2022-10-19T16:30:55.769Z,14.11
2022-10-19T16:33:01.188Z,14.05
2022-10-19T16:35:07.783Z,14.02
2022-10-19T16:37:12.896Z,13.98
2022-10-19T16:39:18.049Z,13.94
2022-10-19T16:41:23.480Z,13.89
2022-10-19T16:43:29.539Z,13.84
2022-10-19T16:45:34.571Z,13.82
2022-10-19T16:47:39.402Z,13.79
2022-10-19T16:49:44.691Z,13.78
2022-10-19T16:51:51.982Z,13.78
2022-10-19T16:54:00.419Z,13.75
2022-10-19T16:56:08.068Z,13.73
2022-10-19T16:58:13.710Z,13.71
2022-10-19T17:00:19.115Z,13.67
2022-10-19T17:02:24.684Z,13.60
2022-10-19T17:04:30.111Z,13.52
2022-10-19T17:06:36.894Z,13.46
2022-10-19T17:09:14.724Z,13.40
2022-10-19T17:11:16.228Z,13.35
2022-10-19T17:13:21.119Z,13.30
2022-10-19T17:15:43.444Z,13.28
2022-10-19T17:17:49.734Z,13.25
2022-10-19T17:19:55.052Z,13.25
2022-10-19T17:22:00.749Z,13.25
2022-10-19T17:24:08.739Z,13.22
2022-10-19T17:26:16.970Z,13.21
2022-10-19T17:28:26.859Z,13.21
2022-10-19T17:30:34.053Z,13.20
2022-10-19T17:32:40.126Z,13.21
2022-10-19T17:34:46.689Z,13.21
2022-10-19T17:36:52.493Z,13.20
2022-10-19T17:39:02.224Z,13.18
2022-10-19T17:41:15.976Z,13.15
2022-10-19T17:43:25.715Z,13.13
2022-10-19T17:45:33.154Z,13.13
2022-10-19T17:47:39.562Z,13.13
2022-10-19T17:49:50.904Z,13.14
2022-10-19T17:51:58.416Z,13.13
2022-10-19T17:54:08.450Z,13.12
2022-10-19T17:56:16.506Z,13.09
2022-10-19T17:58:24.181Z,13.05
2022-10-19T18:00:32.235Z,13.04
2022-10-19T18:02:38.706Z,13.04
2022-10-19T18:04:45.242Z,13.05
2022-10-19T18:06:53.208Z,13.06
2022-10-19T18:09:00.609Z,13.11
2022-10-19T18:11:08.679Z,13.12
2022-10-19T18:13:14.659Z,13.11
2022-10-19T18:15:21.375Z,13.15
2022-10-19T18:17:27.879Z,13.17
2022-10-19T18:19:36.060Z,13.19
2022-10-19T18:21:44.450Z,13.20
2022-10-19T18:23:51.954Z,13.21
2022-10-19T18:26:01.285Z,13.24
2022-10-19T18:28:08.531Z,13.25
2022-10-19T18:30:14.895Z,13.26
2022-10-19T18:32:21.287Z,13.27
2022-10-19T18:34:30.171Z,13.29
2022-10-19T18:36:36.697Z,13.31
2022-10-19T18:38:42.900Z,13.31
2022-10-19T18:40:51.704Z,13.31
2022-10-19T18:42:58.504Z,13.32
2022-10-19T18:45:04.698Z,13.33
2022-10-19T18:47:13.420Z,13.34
2022-10-19T18:49:20.054Z,13.31
2022-10-19T18:51:27.488Z,13.29
2022-10-19T18:53:36.035Z,13.28
2022-10-19T18:55:42.925Z,13.30
2022-10-19T18:57:50.079Z,13.32
2022-10-19T18:59:59.539Z,13.32
2022-10-19T19:02:13.710Z,13.28
2022-10-19T19:04:30.083Z,13.23
2022-10-19T19:06:36.894Z,13.20
2022-10-19T19:10:55.521Z,13.12
2022-10-19T19:13:02.668Z,13.08
2022-10-19T19:15:10.185Z,13.05
2022-10-19T19:17:16.374Z,13.03
2022-10-19T19:19:23.961Z,13.00
2022-10-19T19:21:33.788Z,12.97
2022-10-19T19:23:40.401Z,12.94
2022-10-19T19:25:49.516Z,12.93
2022-10-19T19:28:02.472Z,12.90
2022-10-19T19:30:14.165Z,12.86
2022-10-19T19:32:23.707Z,12.84
2022-10-19T19:34:29.765Z,12.83
2022-10-19T19:36:37.139Z,12.82
2022-10-19T19:38:44.698Z,12.79
2022-10-19T19:40:51.526Z,12.77
2022-10-19T19:42:57.710Z,12.75
2022-10-19T19:45:04.651Z,12.74
2022-10-19T19:47:13.203Z,12.70
2022-10-19T19:49:21.538Z,12.66
2022-10-19T19:51:28.548Z,12.63
2022-10-19T19:53:34.450Z,12.59
2022-10-19T19:55:39.882Z,12.55
2022-10-19T19:57:46.254Z,12.53
2022-10-19T19:59:53.172Z,12.51
2022-10-19T20:02:02.124Z,12.49
2022-10-19T20:04:09.277Z,12.47
2022-10-19T20:06:18.729Z,12.46
2022-10-19T20:08:27.499Z,12.45
2022-10-19T20:10:33.398Z,12.43
2022-10-19T20:12:41.461Z,12.40
2022-10-19T20:14:50.583Z,12.38
2022-10-19T20:16:59.043Z,12.34
2022-10-19T20:19:08.717Z,12.30
2022-10-19T20:21:14.933Z,12.26
2022-10-19T20:23:21.256Z,12.24
2022-10-19T20:25:29.343Z,12.21
2022-10-19T20:27:38.313Z,12.17
2022-10-19T20:29:45.450Z,12.14
2022-10-19T20:31:51.121Z,12.11
2022-10-19T20:33:57.438Z,12.08
2022-10-19T20:36:08.921Z,12.05
2022-10-19T20:38:18.501Z,12.01
2022-10-19T20:40:24.429Z,11.99
2022-10-19T20:42:29.221Z,11.95
2022-10-19T20:44:36.624Z,11.95
2022-10-19T20:46:41.870Z,11.96
2022-10-19T20:48:50.988Z,11.95
2022-10-19T20:51:08.035Z,11.96
2022-10-19T20:53:13.505Z,11.94
2022-10-19T20:55:18.429Z,11.93
2022-10-19T20:57:23.545Z,11.91
2022-10-19T20:59:28.824Z,11.88
2022-10-19T21:01:35.534Z,11.85
2022-10-19T21:03:45.118Z,11.83
2022-10-19T21:05:49.899Z,11.79
2022-10-19T21:07:54.681Z,11.78
2022-10-19T21:09:59.638Z,11.74
2022-10-19T21:12:04.376Z,11.71
2022-10-19T21:14:11.817Z,11.71
2022-10-19T21:16:18.110Z,11.67
2022-10-19T21:18:22.858Z,11.65
2022-10-19T21:20:27.606Z,11.63
2022-10-19T21:22:34.551Z,11.59
2022-10-19T21:24:42.588Z,11.59
2022-10-19T21:26:47.575Z,11.57
2022-10-19T21:28:53.027Z,11.54
2022-10-19T21:31:01.611Z,11.52
2022-10-19T21:33:06.800Z,11.51
2022-10-19T21:35:11.803Z,11.50
2022-10-19T21:37:16.743Z,11.49
2022-10-19T21:39:22.432Z,11.48
2022-10-19T21:41:27.653Z,11.46
2022-10-19T21:43:32.537Z,11.46
2022-10-19T21:45:40.388Z,11.45
2022-10-19T21:47:47.234Z,11.45
2022-10-19T21:49:53.018Z,11.45
2022-10-19T21:51:58.478Z,11.44
2022-10-19T21:54:03.649Z,11.43
2022-10-19T21:56:08.627Z,11.43
2022-10-19T21:58:13.428Z,11.43
2022-10-19T22:00:18.241Z,11.41
2022-10-19T22:02:24.660Z,11.39
2022-10-19T22:04:29.558Z,11.39
2022-10-19T22:06:36.236Z,11.37
2022-10-19T22:08:44.235Z,11.36
2022-10-19T22:10:48.943Z,11.37
2022-10-19T22:12:53.703Z,11.35
2022-10-19T22:14:58.390Z,11.35
2022-10-19T22:17:03.032Z,11.36
2022-10-19T22:19:07.797Z,11.35
2022-10-19T22:21:14.939Z,11.32
2022-10-19T22:23:19.685Z,11.30
2022-10-19T22:25:24.434Z,11.25
2022-10-19T22:27:29.109Z,11.22
2022-10-19T22:29:34.609Z,11.20
2022-10-19T22:31:39.954Z,11.18
2022-10-19T22:33:45.811Z,11.15
2022-10-19T22:35:58.045Z,11.15
2022-10-19T22:38:03.233Z,11.15
2022-10-19T22:40:09.659Z,11.12
2022-10-19T22:42:14.401Z,11.11
2022-10-19T22:44:19.635Z,11.10
2022-10-19T22:46:24.494Z,11.08
2022-10-19T22:48:29.537Z,11.08
2022-10-19T22:50:34.159Z,11.09
2022-10-19T22:52:39.148Z,11.07
2022-10-19T22:54:44.113Z,11.04
2022-10-19T22:56:48.819Z,11.01
2022-10-19T22:58:53.489Z,10.96
2022-10-19T23:01:07.067Z,10.94
2022-10-19T23:03:11.935Z,10.92
2022-10-19T23:05:16.785Z,10.90
2022-10-19T23:07:21.611Z,10.88
2022-10-19T23:09:26.358Z,10.84
2022-10-19T23:11:31.045Z,10.82
2022-10-19T23:13:35.844Z,10.78
2022-10-19T23:15:43.782Z,10.75
2022-10-19T23:17:49.822Z,10.71
2022-10-19T23:19:54.547Z,10.69
2022-10-19T23:21:59.185Z,10.67
2022-10-19T23:24:03.995Z,10.64
2022-10-19T23:26:10.910Z,10.62
2022-10-19T23:28:15.627Z,10.61
2022-10-19T23:30:20.471Z,10.59
2022-10-19T23:32:25.159Z,10.59
2022-10-19T23:34:32.722Z,10.59
2022-10-19T23:36:37.357Z,10.57
2022-10-19T23:38:45.698Z,10.53
2022-10-19T23:40:50.434Z,10.50
2022-10-19T23:42:55.040Z,10.48
2022-10-19T23:44:59.650Z,10.46
2022-10-19T23:47:07.457Z,10.45
2022-10-19T23:49:12.207Z,10.45
2022-10-19T23:51:18.211Z,10.44
2022-10-19T23:53:22.814Z,10.42
2022-10-19T23:55:27.397Z,10.39
2022-10-19T23:57:32.041Z,10.38
2022-10-19T23:59:36.747Z,10.35
